• Join FlightAware (Why Join?)
  • Login
  • US Flag 
06:49PM EDT


 

Airport Tracker/Info


-or-


 

Live Flight TrackerFlight Track Log ✈ N31CG ✈ 02-Jul-2013 ✈ KILM - KGSO

Flight Track Log - Related Links

Times and Time Zones

All times are in EDT time to prevent confusion due to time zone crossing. See the N31CG flight status page for this flight to view local times or setup timezone preferences in your user account.

Time Position Orientation Groundspeed Altitude Reporting Facility
EDT Latitude Longitude Course Direction KTS MPH feet Rate Location/Type
05:14PM 34.2436 -78.0036 321° Northwest 159 183 4,000  Level Washington Center
05:15PM 34.2697 -78.0547 302° West 159 183 6,000 1,440 Climbing Washington Center
05:16PM 34.3125 -78.0964 321° Northwest 176 203 7,000 960 Climbing Washington Center
05:17PM 34.3531 -78.1578 309° West 207 238 8,000 1,560 Climbing Washington Center
05:18PM 34.3850 -78.2167 303° West 212 244 10,200 1,860 Climbing Washington Center
05:19PM 34.5420 -78.2038 315° West  Level FlightAware Approximate
05:19PM 34.4192 -78.2733 306° West 212 244 11,900  Level Washington Center
05:20PM 34.5879 -78.2546 321° Northwest  Level FlightAware Approximate
05:20PM 34.4556 -78.3322 307° West 217 250 13,400  Level Washington Center
05:21PM 34.4956 -78.3992 306° West 227 261 14,000 300 Climbing Washington Center
05:22PM 34.5419 -78.4714 308° West 253 291 14,000  Level Washington Center
05:23PM 34.5861 -78.5411 308° West 279 321 14,000  Level Washington Center
05:24PM 34.6364 -78.6236 307° West 284 327 14,000  Level Washington Center
05:25PM 34.6803 -78.6933 307° West 289 333 14,000  Level Washington Center
05:26PM 34.7303 -78.7786 306° West 289 333 14,000  Level Washington Center
05:27PM 34.7722 -78.8461 307° West 289 333 14,000  Level Washington Center
05:28PM 34.8242 -78.9317 307° West 289 333 14,000  Level Washington Center
05:29PM 34.8661 -79.0017 306° West 289 333 14,000  Level Washington Center
05:30PM 34.9117 -79.0822 305° West 294 338 14,000  Level Washington Center
05:31PM 34.9572 -79.1628 305° West 294 338 14,000  Level Washington Center
05:32PM 35.0242 -79.2239 323° Northwest 294 338 14,000  Level Washington Center
05:33PM 35.0936 -79.2753 329° Northwest 289 333 14,000  Level Washington Center
05:34PM 35.1672 -79.3269 330° Northwest 296 341 14,000  Level Washington Center
05:35PM 35.2386 -79.3811 328° Northwest 296 341 14,000  Level Washington Center
05:37PM 35.2235 -79.4604 257° West  Level FlightAware Approximate
05:44PM 35.5856 -79.6350 329° Northwest  Level FlightAware Approximate
05:45PM 35.6410 -79.6752 329° Northwest  Level FlightAware Approximate
05:46PM 35.6964 -79.7155 329° Northwest  Level FlightAware Approximate
05:47PM 35.7518 -79.7558 329° Northwest  Level FlightAware Approximate
05:48PM 35.8064 -79.7975 328° Northwest  Level FlightAware Approximate
05:49PM 35.8609 -79.8399 328° Northwest  Level FlightAware Approximate
05:50PM 35.9152 -79.8822 328° Northwest  Level FlightAware Approximate
05:51PM 35.9691 -79.9191 321° Northwest  Level FlightAware Approximate
05:52PM 36.0238 -79.9603 332° Northwest  Level FlightAware Approximate